createdAt,value
2022-11-22T00:04:59.110Z,68.07
2022-11-22T00:10:02.308Z,68.42
2022-11-22T00:15:06.238Z,68.34
2022-11-22T00:20:11.980Z,68.16
2022-11-22T00:25:15.166Z,68.20
2022-11-22T00:30:18.236Z,68.60
2022-11-22T00:35:21.168Z,68.39
2022-11-22T00:40:24.085Z,68.61
2022-11-22T00:45:27.055Z,69.08
2022-11-22T00:50:30.387Z,68.95
2022-11-22T00:55:33.357Z,68.75
2022-11-22T01:00:36.341Z,68.53
2022-11-22T01:05:39.857Z,68.42
2022-11-22T01:10:43.019Z,68.51
2022-11-22T01:15:45.955Z,68.44
2022-11-22T01:20:48.908Z,68.45
2022-11-22T01:25:51.819Z,68.44
2022-11-22T01:30:55.227Z,68.81
2022-11-22T01:35:58.649Z,69.05
2022-11-22T01:41:01.896Z,68.84
2022-11-22T01:46:10.048Z,68.86
2022-11-22T01:51:40.573Z,68.60
2022-11-22T01:56:48.685Z,68.49
2022-11-22T02:01:52.533Z,68.47
2022-11-22T02:07:13.457Z,68.10
2022-11-22T02:12:19.416Z,68.31
2022-11-22T02:17:26.316Z,68.13
2022-11-22T02:22:53.933Z,67.86
2022-11-22T02:27:56.937Z,68.18
2022-11-22T02:32:59.868Z,68.25
2022-11-22T02:38:13.325Z,68.96
2022-11-22T02:43:22.185Z,69.21
2022-11-22T02:48:25.207Z,69.34
2022-11-22T02:53:31.361Z,69.11
2022-11-22T02:58:34.483Z,69.28
2022-11-22T03:03:37.554Z,69.21
2022-11-22T03:08:40.581Z,68.91
2022-11-22T03:13:43.783Z,69.21
2022-11-22T03:18:46.857Z,68.68
2022-11-22T03:23:49.756Z,69.03
2022-11-22T03:28:53.111Z,68.91
2022-11-22T03:33:56.683Z,69.25
2022-11-22T03:38:59.659Z,69.24
2022-11-22T03:44:02.623Z,69.81
2022-11-22T03:49:05.711Z,69.94
2022-11-22T03:54:08.683Z,70.29
2022-11-22T03:59:11.725Z,70.95
2022-11-22T04:04:14.992Z,71.46
2022-11-22T04:09:18.073Z,71.67
2022-11-22T04:14:40.228Z,71.79
2022-11-22T04:20:03.288Z,71.68
2022-11-22T04:25:15.255Z,71.77
2022-11-22T04:30:20.734Z,71.62
2022-11-22T04:35:24.090Z,71.61
2022-11-22T04:40:27.055Z,71.62
2022-11-22T04:45:29.992Z,71.71
2022-11-22T04:50:51.622Z,71.43
2022-11-22T04:55:55.028Z,71.70
2022-11-22T05:00:58.097Z,71.64
2022-11-22T05:06:03.013Z,71.67
2022-11-22T05:11:06.191Z,72.02
2022-11-22T05:16:12.134Z,71.64
2022-11-22T05:21:15.193Z,71.53
2022-11-22T05:26:19.099Z,70.97
2022-11-22T05:31:23.658Z,70.69
2022-11-22T05:36:26.759Z,70.78
2022-11-22T05:41:29.779Z,70.68
2022-11-22T05:46:32.713Z,70.76
2022-11-22T05:51:35.647Z,70.99
2022-11-22T05:56:38.710Z,70.82
2022-11-22T06:01:41.802Z,70.20
2022-11-22T06:06:47.187Z,70.01
2022-11-22T06:11:50.152Z,70.01
2022-11-22T06:16:53.401Z,70.88
2022-11-22T06:21:56.318Z,70.20
2022-11-22T06:26:59.321Z,69.87
2022-11-22T06:32:03.952Z,69.73
2022-11-22T06:37:07.452Z,70.11
2022-11-22T06:42:10.441Z,70.09
2022-11-22T06:47:13.504Z,70.30
2022-11-22T06:52:16.642Z,70.15
2022-11-22T06:57:20.710Z,69.57
2022-11-22T07:02:23.715Z,69.42
2022-11-22T07:07:26.953Z,69.58
2022-11-22T07:12:30.067Z,69.60
2022-11-22T07:17:33.227Z,69.76
2022-11-22T07:22:36.202Z,69.82
2022-11-22T07:27:39.155Z,69.47
2022-11-22T07:32:46.628Z,69.55
2022-11-22T07:37:49.650Z,69.94
2022-11-22T07:42:58.169Z,70.19
2022-11-22T07:48:02.347Z,70.33
2022-11-22T07:53:05.359Z,70.62
2022-11-22T07:58:08.367Z,70.75
2022-11-22T08:03:14.413Z,70.48
2022-11-22T08:08:20.501Z,70.15
2022-11-22T08:13:24.451Z,70.30
2022-11-22T08:18:27.606Z,70.98
2022-11-22T08:23:30.553Z,70.19
2022-11-22T08:28:33.648Z,70.32
2022-11-22T08:33:37.001Z,69.82
2022-11-22T08:38:40.183Z,70.18
2022-11-22T08:43:43.340Z,70.23
2022-11-22T08:48:46.989Z,69.96
2022-11-22T08:53:50.291Z,70.14
2022-11-22T08:58:54.445Z,69.89
2022-11-22T09:03:57.586Z,69.78
2022-11-22T09:09:29.961Z,69.50
2022-11-22T09:14:24.129Z,69.51
2022-11-22T09:19:27.280Z,69.40
2022-11-22T09:24:30.272Z,69.01
2022-11-22T09:29:33.497Z,68.63
2022-11-22T09:34:36.690Z,68.53
2022-11-22T09:39:42.585Z,68.14
2022-11-22T09:44:55.372Z,68.53
2022-11-22T09:50:08.411Z,68.53
2022-11-22T09:55:24.148Z,68.00
2022-11-22T10:00:28.779Z,67.51
2022-11-22T10:05:59.430Z,67.46
2022-11-22T10:11:07.101Z,67.18
2022-11-22T10:16:31.625Z,67.59
2022-11-22T10:21:34.812Z,66.65
2022-11-22T10:26:39.526Z,66.52
2022-11-22T10:32:07.644Z,65.60
2022-11-22T10:37:25.165Z,65.36
2022-11-22T10:42:36.654Z,64.85
2022-11-22T10:47:57.579Z,64.66
2022-11-22T10:53:11.171Z,64.61
2022-11-22T10:58:38.358Z,64.75
2022-11-22T11:03:45.291Z,64.99
2022-11-22T11:14:37.877Z,66.56
2022-11-22T11:19:43.694Z,65.71
2022-11-22T11:24:46.825Z,65.00
2022-11-22T11:29:54.175Z,64.88
2022-11-22T11:35:08.000Z,64.89
2022-11-22T11:40:28.518Z,64.77
2022-11-22T11:45:32.945Z,64.39
2022-11-22T11:50:36.241Z,64.45
2022-11-22T11:55:39.259Z,63.65
2022-11-22T12:00:42.842Z,63.21
2022-11-22T12:05:46.020Z,62.57
2022-11-22T12:11:11.692Z,62.39
2022-11-22T12:16:41.427Z,62.20
2022-11-22T12:22:02.202Z,61.83
2022-11-22T12:27:05.841Z,61.77
2022-11-22T12:32:14.735Z,61.75
2022-11-22T12:37:24.081Z,61.53
2022-11-22T12:42:39.808Z,61.56
2022-11-22T12:47:46.672Z,62.53
2022-11-22T12:55:02.331Z,64.11
2022-11-22T13:00:18.294Z,60.18
2022-11-22T13:05:26.355Z,60.27
2022-11-22T13:10:44.967Z,60.67
2022-11-22T13:15:51.618Z,61.10
2022-11-22T13:21:01.913Z,61.63
2022-11-22T13:26:21.948Z,62.01
2022-11-22T13:31:26.370Z,62.22
2022-11-22T13:36:29.857Z,62.40
2022-11-22T13:42:14.127Z,62.51
2022-11-22T13:47:17.694Z,62.91
2022-11-22T13:52:21.153Z,63.06
2022-11-22T13:57:35.140Z,62.97
2022-11-22T14:03:06.627Z,62.99
2022-11-22T14:08:42.622Z,63.04
2022-11-22T14:14:04.804Z,63.36
2022-11-22T14:19:23.443Z,63.44
2022-11-22T14:24:47.603Z,63.50
2022-11-22T14:30:07.458Z,63.72
2022-11-22T14:35:17.706Z,63.84
2022-11-22T14:40:48.816Z,64.02
2022-11-22T14:45:55.620Z,64.17
2022-11-22T14:51:15.500Z,65.04
2022-11-22T14:57:08.520Z,64.89
2022-11-22T15:02:39.021Z,65.14
2022-11-22T15:09:12.682Z,65.29
2022-11-22T15:13:35.152Z,65.13
2022-11-22T15:57:58.936Z,66.43
2022-11-22T16:03:06.983Z,66.30
2022-11-22T16:08:14.474Z,66.74
2022-11-22T16:13:20.965Z,66.35
2022-11-22T16:18:28.702Z,66.42
2022-11-22T16:23:34.292Z,66.69
2022-11-22T16:28:38.437Z,66.83
2022-11-22T16:33:42.312Z,66.71
2022-11-22T16:38:46.948Z,66.38
2022-11-22T16:43:54.959Z,66.19
2022-11-22T16:48:58.694Z,65.95
2022-11-22T16:54:11.517Z,66.20
2022-11-22T16:59:15.686Z,66.24
2022-11-22T17:04:25.573Z,66.22
2022-11-22T17:09:34.601Z,66.40
2022-11-22T17:14:39.748Z,66.59
2022-11-22T17:19:54.900Z,66.34
2022-11-22T17:25:01.321Z,66.79
2022-11-22T17:30:05.917Z,66.87
2022-11-22T17:35:10.828Z,66.37
2022-11-22T17:40:15.506Z,65.93
2022-11-22T17:45:19.398Z,65.24
2022-11-22T17:50:26.547Z,65.39
2022-11-22T17:55:42.660Z,65.33
2022-11-22T18:01:03.564Z,65.28
2022-11-22T18:06:17.841Z,65.50
2022-11-22T18:16:38.737Z,66.12
2022-11-22T18:21:46.004Z,65.74
2022-11-22T18:26:49.947Z,65.92
2022-11-22T18:31:54.466Z,65.61
2022-11-22T18:42:24.574Z,66.07
2022-11-22T18:47:28.047Z,66.09
2022-11-22T18:52:34.583Z,66.17
2022-11-22T18:57:38.087Z,66.74
2022-11-22T19:02:41.622Z,66.29
2022-11-22T19:07:51.933Z,65.91
2022-11-22T19:12:55.737Z,65.91
2022-11-22T19:18:02.461Z,65.96
2022-11-22T19:23:05.910Z,66.16
2022-11-22T19:28:09.492Z,66.19
2022-11-22T19:33:13.415Z,66.18
2022-11-22T19:38:16.918Z,66.35
2022-11-22T19:43:21.418Z,66.87
2022-11-22T19:48:25.337Z,66.94
2022-11-22T19:53:31.821Z,66.34
2022-11-22T19:58:35.747Z,66.41
2022-11-22T20:03:41.351Z,66.66
2022-11-22T20:08:44.835Z,67.34
2022-11-22T20:13:50.188Z,66.67
2022-11-22T20:18:57.694Z,66.51
2022-11-22T20:24:01.242Z,66.87
2022-11-22T20:29:07.284Z,66.75
2022-11-22T20:34:10.522Z,66.84
2022-11-22T20:39:13.587Z,66.58
2022-11-22T20:44:17.620Z,66.70
2022-11-22T20:49:25.189Z,66.89
2022-11-22T20:54:28.773Z,67.00
2022-11-22T20:59:36.502Z,67.33
2022-11-22T21:04:40.488Z,67.33
2022-11-22T21:09:44.230Z,67.50
2022-11-22T21:14:52.528Z,67.54
2022-11-22T21:20:06.589Z,67.63
2022-11-22T21:25:10.304Z,67.40
2022-11-22T21:30:15.031Z,67.45
2022-11-22T21:35:21.601Z,67.66
2022-11-22T21:40:28.220Z,67.45
2022-11-22T21:45:32.481Z,67.38
2022-11-22T21:50:36.612Z,67.32
2022-11-22T21:55:53.209Z,67.15
2022-11-22T22:01:01.691Z,67.34
2022-11-22T22:06:07.794Z,67.13
2022-11-22T22:11:11.985Z,67.36
2022-11-22T22:16:19.263Z,67.38
2022-11-22T22:21:22.799Z,67.33
2022-11-22T22:26:26.480Z,67.57
2022-11-22T22:31:30.041Z,67.85
2022-11-22T22:36:34.856Z,68.00
2022-11-22T22:41:41.309Z,67.97
2022-11-22T22:46:47.990Z,68.01
2022-11-22T22:51:53.352Z,67.90
2022-11-22T22:56:57.422Z,67.83
2022-11-22T23:02:01.095Z,67.46
2022-11-22T23:07:07.907Z,67.42
2022-11-22T23:12:11.912Z,67.48
2022-11-22T23:17:18.736Z,67.61
2022-11-22T23:22:25.932Z,67.67
2022-11-22T23:27:32.740Z,67.98
2022-11-22T23:38:00.235Z,68.08
2022-11-22T23:43:03.893Z,68.26
2022-11-22T23:48:07.753Z,68.41
2022-11-22T23:53:11.432Z,68.51
2022-11-22T23:58:15.115Z,68.44
